sensor_id;sensor_type;location;lat;lon;timestamp;pressure;altitude;pressure_sealevel;temperature;humidity
30339;BME280;795;49.296;11.348;2022-08-20T00:01:53;96274.34;;;16.58;100.00
30339;BME280;795;49.296;11.348;2022-08-20T00:04:21;96271.03;;;16.56;100.00
30339;BME280;795;49.296;11.348;2022-08-20T00:06:48;96273.13;;;16.54;100.00
30339;BME280;795;49.296;11.348;2022-08-20T00:09:15;96265.19;;;16.59;100.00
30339;BME280;795;49.296;11.348;2022-08-20T00:11:42;96263.75;;;16.56;100.00
30339;BME280;795;49.296;11.348;2022-08-20T00:14:09;96271.88;;;16.56;100.00
30339;BME280;795;49.296;11.348;2022-08-20T00:16:37;96272.03;;;16.62;100.00
30339;BME280;795;49.296;11.348;2022-08-20T00:19:07;96276.03;;;16.59;100.00
30339;BME280;795;49.296;11.348;2022-08-20T00:21:36;96275.41;;;16.64;100.00
30339;BME280;795;49.296;11.348;2022-08-20T00:24:04;96273.94;;;16.61;100.00
30339;BME280;795;49.296;11.348;2022-08-20T00:26:32;96279.56;;;16.59;100.00
30339;BME280;795;49.296;11.348;2022-08-20T00:28:59;96275.38;;;16.57;100.00
30339;BME280;795;49.296;11.348;2022-08-20T00:31:26;96263.91;;;16.42;100.00
30339;BME280;795;49.296;11.348;2022-08-20T00:33:53;96273.50;;;16.57;100.00
30339;BME280;795;49.296;11.348;2022-08-20T00:36:22;96264.97;;;16.54;100.00
30339;BME280;795;49.296;11.348;2022-08-20T00:38:59;96279.78;;;16.58;100.00
30339;BME280;795;49.296;11.348;2022-08-20T00:41:28;96279.75;;;16.65;100.00
30339;BME280;795;49.296;11.348;2022-08-20T00:44:14;96280.19;;;16.68;100.00
30339;BME280;795;49.296;11.348;2022-08-20T00:46:44;96270.41;;;16.61;100.00
30339;BME280;795;49.296;11.348;2022-08-20T00:49:20;96281.03;;;16.69;100.00
30339;BME280;795;49.296;11.348;2022-08-20T00:52:08;96289.16;;;16.69;100.00
30339;BME280;795;49.296;11.348;2022-08-20T00:54:52;96289.38;;;16.61;100.00
30339;BME280;795;49.296;11.348;2022-08-20T00:57:39;96295.81;;;16.53;100.00
30339;BME280;795;49.296;11.348;2022-08-20T01:00:35;96287.03;;;16.51;100.00
30339;BME280;795;49.296;11.348;2022-08-20T01:03:07;96288.28;;;16.48;100.00
30339;BME280;795;49.296;11.348;2022-08-20T01:05:39;96286.84;;;16.39;100.00
30339;BME280;795;49.296;11.348;2022-08-20T01:08:07;96284.09;;;16.33;100.00
30339;BME280;795;49.296;11.348;2022-08-20T01:10:41;96278.47;;;16.28;100.00
30339;BME280;795;49.296;11.348;2022-08-20T01:13:21;96273.69;;;16.23;100.00
30339;BME280;795;49.296;11.348;2022-08-20T01:15:53;96282.25;;;16.33;100.00
30339;BME280;795;49.296;11.348;2022-08-20T01:18:26;96283.28;;;16.32;100.00
30339;BME280;795;49.296;11.348;2022-08-20T01:21:04;96285.78;;;16.34;100.00
30339;BME280;795;49.296;11.348;2022-08-20T01:23:56;96285.38;;;16.37;100.00
30339;BME280;795;49.296;11.348;2022-08-20T01:26:43;96286.00;;;16.45;100.00
30339;BME280;795;49.296;11.348;2022-08-20T01:29:28;96283.06;;;16.34;100.00
30339;BME280;795;49.296;11.348;2022-08-20T01:31:57;96272.03;;;16.48;100.00
30339;BME280;795;49.296;11.348;2022-08-20T01:34:28;96287.25;;;16.43;100.00
30339;BME280;795;49.296;11.348;2022-08-20T01:36:57;96283.50;;;16.50;100.00
30339;BME280;795;49.296;11.348;2022-08-20T01:39:33;96276.84;;;16.53;100.00
30339;BME280;795;49.296;11.348;2022-08-20T01:42:29;96283.91;;;16.41;100.00
30339;BME280;795;49.296;11.348;2022-08-20T01:45:04;96276.00;;;16.46;100.00
30339;BME280;795;49.296;11.348;2022-08-20T01:47:33;96278.47;;;16.47;100.00
30339;BME280;795;49.296;11.348;2022-08-20T01:50:20;96271.66;;;16.58;100.00
30339;BME280;795;49.296;11.348;2022-08-20T01:53:11;96276.22;;;16.57;100.00
30339;BME280;795;49.296;11.348;2022-08-20T01:55:41;96272.47;;;16.58;100.00
30339;BME280;795;49.296;11.348;2022-08-20T01:58:08;96284.97;;;16.46;100.00
30339;BME280;795;49.296;11.348;2022-08-20T02:00:36;96259.75;;;16.46;100.00
30339;BME280;795;49.296;11.348;2022-08-20T02:03:03;96275.38;;;16.50;100.00
30339;BME280;795;49.296;11.348;2022-08-20T02:05:31;96274.75;;;16.48;100.00
30339;BME280;795;49.296;11.348;2022-08-20T02:08:01;96269.56;;;16.53;100.00
30339;BME280;795;49.296;11.348;2022-08-20T02:10:29;96274.38;;;16.51;100.00
30339;BME280;795;49.296;11.348;2022-08-20T02:13:00;96269.34;;;16.42;100.00
30339;BME280;795;49.296;11.348;2022-08-20T02:15:28;96274.53;;;16.50;100.00
30339;BME280;795;49.296;11.348;2022-08-20T02:18:09;96272.88;;;16.49;100.00
30339;BME280;795;49.296;11.348;2022-08-20T02:20:38;96270.97;;;16.49;100.00
30339;BME280;795;49.296;11.348;2022-08-20T02:23:07;96263.69;;;16.43;100.00
30339;BME280;795;49.296;11.348;2022-08-20T02:25:38;96260.56;;;16.40;100.00
30339;BME280;795;49.296;11.348;2022-08-20T02:28:13;96271.66;;;16.51;100.00
30339;BME280;795;49.296;11.348;2022-08-20T02:30:47;96274.38;;;16.51;100.00
30339;BME280;795;49.296;11.348;2022-08-20T02:33:19;96274.75;;;16.55;100.00
30339;BME280;795;49.296;11.348;2022-08-20T02:35:52;96264.13;;;16.47;100.00
30339;BME280;795;49.296;11.348;2022-08-20T02:38:23;96266.63;;;16.48;100.00
30339;BME280;795;49.296;11.348;2022-08-20T02:40:50;96278.31;;;16.55;100.00
30339;BME280;795;49.296;11.348;2022-08-20T02:43:17;96280.16;;;16.48;100.00
30339;BME280;795;49.296;11.348;2022-08-20T02:45:46;96261.81;;;16.37;100.00
30339;BME280;795;49.296;11.348;2022-08-20T02:48:18;96270.16;;;16.29;100.00
30339;BME280;795;49.296;11.348;2022-08-20T02:50:57;96263.50;;;16.38;100.00
30339;BME280;795;49.296;11.348;2022-08-20T02:53:27;96278.91;;;16.31;100.00
30339;BME280;795;49.296;11.348;2022-08-20T02:55:56;96281.19;;;16.28;100.00
30339;BME280;795;49.296;11.348;2022-08-20T02:58:23;96278.94;;;16.44;100.00
30339;BME280;795;49.296;11.348;2022-08-20T03:00:52;96276.00;;;16.39;100.00
30339;BME280;795;49.296;11.348;2022-08-20T03:03:19;96265.16;;;16.39;100.00
30339;BME280;795;49.296;11.348;2022-08-20T03:05:56;96269.94;;;16.31;100.00
30339;BME280;795;49.296;11.348;2022-08-20T03:08:26;96250.13;;;16.30;100.00
30339;BME280;795;49.296;11.348;2022-08-20T03:10:55;96269.31;;;16.29;100.00
30339;BME280;795;49.296;11.348;2022-08-20T03:13:23;96247.00;;;16.14;100.00
30339;BME280;795;49.296;11.348;2022-08-20T03:15:58;96266.59;;;16.35;100.00
30339;BME280;795;49.296;11.348;2022-08-20T03:18:33;96258.06;;;16.38;100.00
30339;BME280;795;49.296;11.348;2022-08-20T03:21:04;96258.91;;;16.39;100.00
30339;BME280;795;49.296;11.348;2022-08-20T03:23:33;96265.38;;;16.25;100.00
30339;BME280;795;49.296;11.348;2022-08-20T03:26:07;96275.97;;;16.26;100.00
30339;BME280;795;49.296;11.348;2022-08-20T03:28:35;96276.19;;;16.18;100.00
30339;BME280;795;49.296;11.348;2022-08-20T03:31:04;96268.47;;;16.28;100.00
30339;BME280;795;49.296;11.348;2022-08-20T03:33:31;96265.16;;;16.26;100.00
30339;BME280;795;49.296;11.348;2022-08-20T03:35:58;96267.88;;;16.39;100.00
30339;BME280;795;49.296;11.348;2022-08-20T03:38:26;96269.53;;;16.40;100.00
30339;BME280;795;49.296;11.348;2022-08-20T03:41:01;96280.97;;;16.42;100.00
30339;BME280;795;49.296;11.348;2022-08-20T03:43:29;96284.75;;;16.41;100.00
30339;BME280;795;49.296;11.348;2022-08-20T03:45:57;96284.97;;;16.46;100.00
30339;BME280;795;49.296;11.348;2022-08-20T03:48:24;96288.69;;;16.45;100.00
30339;BME280;795;49.296;11.348;2022-08-20T03:50:51;96296.44;;;16.48;100.00
30339;BME280;795;49.296;11.348;2022-08-20T03:53:18;96294.34;;;16.50;100.00
30339;BME280;795;49.296;11.348;2022-08-20T03:55:48;96301.69;;;16.56;100.00
30339;BME280;795;49.296;11.348;2022-08-20T03:58:22;96303.31;;;16.57;100.00
30339;BME280;795;49.296;11.348;2022-08-20T04:01:05;96296.00;;;16.45;100.00
30339;BME280;795;49.296;11.348;2022-08-20T04:03:33;96315.63;;;16.53;100.00
30339;BME280;795;49.296;11.348;2022-08-20T04:06:01;96311.00;;;16.47;100.00
30339;BME280;795;49.296;11.348;2022-08-20T04:08:29;96302.47;;;16.50;100.00
30339;BME280;795;49.296;11.348;2022-08-20T04:10:58;96306.44;;;16.41;100.00
30339;BME280;795;49.296;11.348;2022-08-20T04:13:28;96314.16;;;16.44;100.00
30339;BME280;795;49.296;11.348;2022-08-20T04:16:00;96312.25;;;16.45;100.00
30339;BME280;795;49.296;11.348;2022-08-20T04:18:28;96316.41;;;16.47;100.00
30339;BME280;795;49.296;11.348;2022-08-20T04:20:55;96313.13;;;16.52;100.00
30339;BME280;795;49.296;11.348;2022-08-20T04:23:22;96316.22;;;16.49;100.00
30339;BME280;795;49.296;11.348;2022-08-20T04:25:49;96315.63;;;16.53;100.00
30339;BME280;795;49.296;11.348;2022-08-20T04:28:21;96315.63;;;16.47;100.00
30339;BME280;795;49.296;11.348;2022-08-20T04:30:56;96309.75;;;16.50;100.00
30339;BME280;795;49.296;11.348;2022-08-20T04:33:27;96307.66;;;16.45;100.00
30339;BME280;795;49.296;11.348;2022-08-20T04:36:03;96314.78;;;16.46;100.00
30339;BME280;795;49.296;11.348;2022-08-20T04:38:32;96317.25;;;16.48;100.00
30339;BME280;795;49.296;11.348;2022-08-20T04:41:19;96317.72;;;16.51;100.00
30339;BME280;795;49.296;11.348;2022-08-20T04:43:55;96309.53;;;16.45;100.00
30339;BME280;795;49.296;11.348;2022-08-20T04:46:25;96321.63;;;16.42;100.00
30339;BME280;795;49.296;11.348;2022-08-20T04:48:56;96312.91;;;16.47;100.00
30339;BME280;795;49.296;11.348;2022-08-20T04:51:24;96315.63;;;16.53;100.00
30339;BME280;795;49.296;11.348;2022-08-20T04:53:54;96304.34;;;16.50;100.00
30339;BME280;795;49.296;11.348;2022-08-20T04:56:34;96310.59;;;16.50;100.00
30339;BME280;795;49.296;11.348;2022-08-20T04:59:06;96310.78;;;16.42;100.00
30339;BME280;795;49.296;11.348;2022-08-20T05:01:34;96319.56;;;16.51;100.00
30339;BME280;795;49.296;11.348;2022-08-20T05:04:01;96310.84;;;16.69;100.00
30339;BME280;795;49.296;11.348;2022-08-20T05:06:31;96322.94;;;16.73;100.00
30339;BME280;795;49.296;11.348;2022-08-20T05:08:59;96330.44;;;16.71;100.00
30339;BME280;795;49.296;11.348;2022-08-20T05:11:28;96323.75;;;16.80;100.00
30339;BME280;795;49.296;11.348;2022-08-20T05:14:08;96335.25;;;16.75;100.00
30339;BME280;795;49.296;11.348;2022-08-20T05:16:39;96328.34;;;16.73;100.00
30339;BME280;795;49.296;11.348;2022-08-20T05:19:12;96336.69;;;16.78;100.00
30339;BME280;795;49.296;11.348;2022-08-20T05:21:39;96325.22;;;16.89;100.00
30339;BME280;795;49.296;11.348;2022-08-20T05:24:08;96332.72;;;16.87;100.00
30339;BME280;795;49.296;11.348;2022-08-20T05:26:36;96327.28;;;16.87;100.00
30339;BME280;795;49.296;11.348;2022-08-20T05:29:03;96328.75;;;16.89;100.00
30339;BME280;795;49.296;11.348;2022-08-20T05:31:33;96336.88;;;16.76;100.00
30339;BME280;795;49.296;11.348;2022-08-20T05:34:06;96331.06;;;16.79;100.00
30339;BME280;795;49.296;11.348;2022-08-20T05:36:47;96329.38;;;16.85;100.00
30339;BME280;795;49.296;11.348;2022-08-20T05:39:19;96329.38;;;16.98;100.00
30339;BME280;795;49.296;11.348;2022-08-20T05:41:48;96336.47;;;16.99;100.00
30339;BME280;795;49.296;11.348;2022-08-20T05:44:17;96332.31;;;16.90;100.00
30339;BME280;795;49.296;11.348;2022-08-20T05:46:46;96333.56;;;16.87;100.00
30339;BME280;795;49.296;11.348;2022-08-20T05:49:19;96343.97;;;16.97;100.00
30339;BME280;795;49.296;11.348;2022-08-20T05:51:49;96341.28;;;16.84;100.00
30339;BME280;795;49.296;11.348;2022-08-20T05:54:17;96340.66;;;16.95;100.00
30339;BME280;795;49.296;11.348;2022-08-20T05:56:44;96337.09;;;16.94;100.00
30339;BME280;795;49.296;11.348;2022-08-20T05:59:11;96342.72;;;17.06;100.00
30339;BME280;795;49.296;11.348;2022-08-20T06:01:41;96339.59;;;17.09;100.00
30339;BME280;795;49.296;11.348;2022-08-20T06:04:09;96338.31;;;17.18;100.00
30339;BME280;795;49.296;11.348;2022-08-20T06:07:02;96341.22;;;17.23;100.00
30339;BME280;795;49.296;11.348;2022-08-20T06:09:30;96353.13;;;17.22;100.00
30339;BME280;795;49.296;11.348;2022-08-20T06:12:05;96349.38;;;17.16;100.00
30339;BME280;795;49.296;11.348;2022-08-20T06:14:33;96347.50;;;17.17;100.00
30339;BME280;795;49.296;11.348;2022-08-20T06:17:12;96351.22;;;17.22;100.00
30339;BME280;795;49.296;11.348;2022-08-20T06:19:44;96356.88;;;17.27;100.00
30339;BME280;795;49.296;11.348;2022-08-20T06:22:14;96351.03;;;17.24;100.00
30339;BME280;795;49.296;11.348;2022-08-20T06:24:53;96350.38;;;17.35;100.00
30339;BME280;795;49.296;11.348;2022-08-20T06:27:22;96353.09;;;17.35;100.00
30339;BME280;795;49.296;11.348;2022-08-20T06:29:50;96364.16;;;17.40;100.00
30339;BME280;795;49.296;11.348;2022-08-20T06:32:20;96355.59;;;17.37;100.00
30339;BME280;795;49.296;11.348;2022-08-20T06:35:00;96356.22;;;17.32;100.00
30339;BME280;795;49.296;11.348;2022-08-20T06:37:33;96354.16;;;17.34;100.00
30339;BME280;795;49.296;11.348;2022-08-20T06:40:16;96365.41;;;17.38;100.00
30339;BME280;795;49.296;11.348;2022-08-20T06:42:44;96363.47;;;17.51;100.00
30339;BME280;795;49.296;11.348;2022-08-20T06:45:21;96371.47;;;17.53;100.00
30339;BME280;795;49.296;11.348;2022-08-20T06:47:56;96375.22;;;17.58;100.00
30339;BME280;795;49.296;11.348;2022-08-20T06:50:41;96349.91;;;17.51;100.00
30339;BME280;795;49.296;11.348;2022-08-20T06:53:19;96360.53;;;17.66;100.00
30339;BME280;795;49.296;11.348;2022-08-20T06:55:54;96353.00;;;17.74;100.00
30339;BME280;795;49.296;11.348;2022-08-20T06:58:22;96356.31;;;17.83;100.00
30339;BME280;795;49.296;11.348;2022-08-20T07:01:10;96366.09;;;17.90;100.00
30339;BME280;795;49.296;11.348;2022-08-20T07:03:40;96359.19;;;17.95;100.00
30339;BME280;795;49.296;11.348;2022-08-20T07:06:24;96371.44;;;18.10;100.00
30339;BME280;795;49.296;11.348;2022-08-20T07:08:53;96369.47;;;18.30;100.00
30339;BME280;795;49.296;11.348;2022-08-20T07:11:22;96372.53;;;18.47;100.00
30339;BME280;795;49.296;11.348;2022-08-20T07:13:56;96362.88;;;18.51;100.00
30339;BME280;795;49.296;11.348;2022-08-20T07:16:25;96375.59;;;18.57;100.00
30339;BME280;795;49.296;11.348;2022-08-20T07:18:52;96375.63;;;18.50;100.00
30339;BME280;795;49.296;11.348;2022-08-20T07:21:19;96371.63;;;18.53;100.00
30339;BME280;795;49.296;11.348;2022-08-20T07:23:46;96376.91;;;18.48;100.00
30339;BME280;795;49.296;11.348;2022-08-20T07:26:16;96358.50;;;18.50;100.00
30339;BME280;795;49.296;11.348;2022-08-20T07:28:43;96375.84;;;18.80;100.00
30339;BME280;795;49.296;11.348;2022-08-20T07:31:10;96375.72;;;18.69;100.00
30339;BME280;795;49.296;11.348;2022-08-20T07:33:57;96387.56;;;18.81;100.00
30339;BME280;795;49.296;11.348;2022-08-20T07:36:26;96376.69;;;19.05;100.00
30339;BME280;795;49.296;11.348;2022-08-20T07:38:54;96383.25;;;18.98;100.00
30339;BME280;795;49.296;11.348;2022-08-20T07:41:23;96388.28;;;19.19;100.00
30339;BME280;795;49.296;11.348;2022-08-20T07:43:50;96389.03;;;19.08;100.00
30339;BME280;795;49.296;11.348;2022-08-20T07:46:20;96392.72;;;19.13;100.00
30339;BME280;795;49.296;11.348;2022-08-20T07:48:49;96386.63;;;19.18;100.00
30339;BME280;795;49.296;11.348;2022-08-20T07:51:20;96395.72;;;19.30;100.00
30339;BME280;795;49.296;11.348;2022-08-20T07:53:50;96388.53;;;19.36;100.00
30339;BME280;795;49.296;11.348;2022-08-20T07:56:22;96394.56;;;19.44;100.00
30339;BME280;795;49.296;11.348;2022-08-20T07:58:54;96389.34;;;19.43;100.00
30339;BME280;795;49.296;11.348;2022-08-20T08:03:52;96399.81;;;19.82;100.00
30339;BME280;795;49.296;11.348;2022-08-20T08:06:23;96398.84;;;19.95;100.00
30339;BME280;795;49.296;11.348;2022-08-20T08:09:14;96398.53;;;20.03;100.00
30339;BME280;795;49.296;11.348;2022-08-20T08:11:48;96384.44;;;19.51;100.00
30339;BME280;795;49.296;11.348;2022-08-20T08:14:22;96405.28;;;19.82;100.00
30339;BME280;795;49.296;11.348;2022-08-20T08:16:57;96412.06;;;19.91;100.00
30339;BME280;795;49.296;11.348;2022-08-20T08:19:31;96412.22;;;19.96;100.00
30339;BME280;795;49.296;11.348;2022-08-20T08:22:03;96417.22;;;19.99;100.00
30339;BME280;795;49.296;11.348;2022-08-20T08:24:30;96412.41;;;19.83;100.00
30339;BME280;795;49.296;11.348;2022-08-20T08:26:57;96414.19;;;19.89;100.00
30339;BME280;795;49.296;11.348;2022-08-20T08:29:24;96410.81;;;19.75;100.00
30339;BME280;795;49.296;11.348;2022-08-20T08:31:51;96419.22;;;19.74;100.00
30339;BME280;795;49.296;11.348;2022-08-20T08:34:18;96417.50;;;19.55;100.00
30339;BME280;795;49.296;11.348;2022-08-20T08:36:45;96414.94;;;19.60;100.00
30339;BME280;795;49.296;11.348;2022-08-20T08:39:12;96424.19;;;19.59;100.00
30339;BME280;795;49.296;11.348;2022-08-20T08:41:50;96414.66;;;19.68;100.00
30339;BME280;795;49.296;11.348;2022-08-20T08:44:38;96423.88;;;19.67;100.00
30339;BME280;795;49.296;11.348;2022-08-20T08:47:28;96427.81;;;19.71;100.00
30339;BME280;795;49.296;11.348;2022-08-20T08:49:57;96439.47;;;19.78;100.00
30339;BME280;795;49.296;11.348;2022-08-20T08:52:31;96432.38;;;19.95;100.00
30339;BME280;795;49.296;11.348;2022-08-20T08:55:05;96434.88;;;19.78;100.00
30339;BME280;795;49.296;11.348;2022-08-20T08:57:33;96425.16;;;19.64;100.00
30339;BME280;795;49.296;11.348;2022-08-20T09:00:20;96429.88;;;19.75;100.00
30339;BME280;795;49.296;11.348;2022-08-20T09:03:02;96428.59;;;19.78;100.00
30339;BME280;795;49.296;11.348;2022-08-20T09:05:45;96424.78;;;19.79;100.00
30339;BME280;795;49.296;11.348;2022-08-20T09:08:23;96429.59;;;19.83;100.00
30339;BME280;795;49.296;11.348;2022-08-20T09:10:52;96436.28;;;19.63;100.00
30339;BME280;795;49.296;11.348;2022-08-20T09:13:19;96432.19;;;19.72;100.00
30339;BME280;795;49.296;11.348;2022-08-20T09:15:46;96438.03;;;19.94;100.00
30339;BME280;795;49.296;11.348;2022-08-20T09:18:13;96440.09;;;20.16;100.00
30339;BME280;795;49.296;11.348;2022-08-20T09:20:40;96438.59;;;20.38;100.00
30339;BME280;795;49.296;11.348;2022-08-20T09:23:07;96432.91;;;20.40;100.00
30339;BME280;795;49.296;11.348;2022-08-20T09:25:34;96426.78;;;20.26;100.00
30339;BME280;795;49.296;11.348;2022-08-20T09:28:01;96432.13;;;20.51;100.00
30339;BME280;795;49.296;11.348;2022-08-20T09:30:29;96432.94;;;20.51;100.00
30339;BME280;795;49.296;11.348;2022-08-20T09:33:00;96433.09;;;20.57;100.00
30339;BME280;795;49.296;11.348;2022-08-20T09:35:28;96411.31;;;20.20;100.00
30339;BME280;795;49.296;11.348;2022-08-20T09:37:55;96441.78;;;20.35;100.00
30339;BME280;795;49.296;11.348;2022-08-20T09:40:23;96444.94;;;20.32;100.00
30339;BME280;795;49.296;11.348;2022-08-20T09:42:50;96441.66;;;20.60;100.00
30339;BME280;795;49.296;11.348;2022-08-20T09:45:18;96421.28;;;20.63;100.00
30339;BME280;795;49.296;11.348;2022-08-20T09:47:46;96443.31;;;20.91;100.00
30339;BME280;795;49.296;11.348;2022-08-20T09:50:26;96446.63;;;21.11;100.00
30339;BME280;795;49.296;11.348;2022-08-20T09:52:56;96427.78;;;21.03;100.00
30339;BME280;795;49.296;11.348;2022-08-20T09:55:44;96442.47;;;21.20;100.00
30339;BME280;795;49.296;11.348;2022-08-20T09:58:47;96443.34;;;21.44;100.00
30339;BME280;795;49.296;11.348;2022-08-20T10:01:19;96434.00;;;21.63;100.00
30339;BME280;795;49.296;11.348;2022-08-20T10:03:49;96435.06;;;21.97;100.00
30339;BME280;795;49.296;11.348;2022-08-20T10:06:18;96436.00;;;22.02;100.00
30339;BME280;795;49.296;11.348;2022-08-20T10:08:47;96448.59;;;22.15;100.00
30339;BME280;795;49.296;11.348;2022-08-20T10:11:16;96435.78;;;22.04;100.00
30339;BME280;795;49.296;11.348;2022-08-20T10:13:44;96444.94;;;21.86;100.00
30339;BME280;795;49.296;11.348;2022-08-20T10:16:12;96447.63;;;22.21;100.00
30339;BME280;795;49.296;11.348;2022-08-20T10:18:39;96438.31;;;22.45;100.00
30339;BME280;795;49.296;11.348;2022-08-20T10:21:12;96438.19;;;22.28;100.00
30339;BME280;795;49.296;11.348;2022-08-20T10:23:39;96449.50;;;22.32;100.00
30339;BME280;795;49.296;11.348;2022-08-20T10:26:09;96441.44;;;22.25;100.00
30339;BME280;795;49.296;11.348;2022-08-20T10:28:37;96446.44;;;22.68;100.00
30339;BME280;795;49.296;11.348;2022-08-20T10:31:07;96436.66;;;23.00;100.00
30339;BME280;795;49.296;11.348;2022-08-20T10:33:36;96438.34;;;23.18;100.00
30339;BME280;795;49.296;11.348;2022-08-20T10:36:14;96443.53;;;23.48;100.00
30339;BME280;795;49.296;11.348;2022-08-20T10:38:44;96446.19;;;23.59;100.00
30339;BME280;795;49.296;11.348;2022-08-20T10:41:11;96448.25;;;22.91;100.00
30339;BME280;795;49.296;11.348;2022-08-20T10:43:38;96434.13;;;23.10;100.00
30339;BME280;795;49.296;11.348;2022-08-20T10:46:05;96447.94;;;23.04;100.00
30339;BME280;795;49.296;11.348;2022-08-20T10:48:32;96448.94;;;23.43;100.00
30339;BME280;795;49.296;11.348;2022-08-20T10:50:59;96439.97;;;23.81;94.81
30339;BME280;795;49.296;11.348;2022-08-20T10:53:26;96447.16;;;24.41;94.34
30339;BME280;795;49.296;11.348;2022-08-20T10:55:55;96430.88;;;24.57;89.22
30339;BME280;795;49.296;11.348;2022-08-20T10:58:25;96455.72;;;24.45;90.43
30339;BME280;795;49.296;11.348;2022-08-20T11:00:56;96451.19;;;24.56;90.07
30339;BME280;795;49.296;11.348;2022-08-20T11:03:23;96449.84;;;24.15;88.19
30339;BME280;795;49.296;11.348;2022-08-20T11:05:50;96450.16;;;24.40;88.90
30339;BME280;795;49.296;11.348;2022-08-20T11:08:17;96446.50;;;24.56;89.80
30339;BME280;795;49.296;11.348;2022-08-20T11:10:59;96455.72;;;24.88;87.50
30339;BME280;795;49.296;11.348;2022-08-20T11:13:26;96442.75;;;24.19;89.25
30339;BME280;795;49.296;11.348;2022-08-20T11:15:53;96446.91;;;24.21;88.51
30339;BME280;795;49.296;11.348;2022-08-20T11:18:20;96445.47;;;25.05;85.54
30339;BME280;795;49.296;11.348;2022-08-20T11:20:47;96454.03;;;25.67;82.98
30339;BME280;795;49.296;11.348;2022-08-20T11:23:14;96440.88;;;26.53;78.75
30339;BME280;795;49.296;11.348;2022-08-20T11:25:41;96443.41;;;27.42;74.47
30339;BME280;795;49.296;11.348;2022-08-20T11:28:08;96433.03;;;28.58;69.00
30339;BME280;795;49.296;11.348;2022-08-20T11:30:36;96446.69;;;27.79;71.86
30339;BME280;795;49.296;11.348;2022-08-20T11:33:04;96438.31;;;27.09;74.68
30339;BME280;795;49.296;11.348;2022-08-20T11:35:35;96447.16;;;27.21;72.79
30339;BME280;795;49.296;11.348;2022-08-20T11:38:17;96445.81;;;27.23;73.91
30339;BME280;795;49.296;11.348;2022-08-20T11:40:45;96439.81;;;27.67;71.45
30339;BME280;795;49.296;11.348;2022-08-20T11:43:13;96430.69;;;28.06;70.06
30339;BME280;795;49.296;11.348;2022-08-20T11:45:55;96428.47;;;28.23;68.75
30339;BME280;795;49.296;11.348;2022-08-20T11:48:22;96427.66;;;27.88;68.49
30339;BME280;795;49.296;11.348;2022-08-20T11:50:49;96429.53;;;28.38;66.90
30339;BME280;795;49.296;11.348;2022-08-20T11:53:16;96434.16;;;29.21;63.49
30339;BME280;795;49.296;11.348;2022-08-20T11:55:45;96432.16;;;28.78;64.24
30339;BME280;795;49.296;11.348;2022-08-20T11:58:13;96424.63;;;27.69;66.77
30339;BME280;795;49.296;11.348;2022-08-20T12:00:40;96420.44;;;27.26;70.27
30339;BME280;795;49.296;11.348;2022-08-20T12:03:08;96429.50;;;27.07;72.76
30339;BME280;795;49.296;11.348;2022-08-20T12:05:42;96431.84;;;26.68;74.36
30339;BME280;795;49.296;11.348;2022-08-20T12:08:13;96431.19;;;27.33;73.99
30339;BME280;795;49.296;11.348;2022-08-20T12:10:57;96425.75;;;27.73;71.66
30339;BME280;795;49.296;11.348;2022-08-20T12:13:29;96423.25;;;27.87;69.35
30339;BME280;795;49.296;11.348;2022-08-20T12:16:18;96422.97;;;27.53;68.35
30339;BME280;795;49.296;11.348;2022-08-20T12:18:47;96424.81;;;27.02;71.51
30339;BME280;795;49.296;11.348;2022-08-20T12:21:14;96429.88;;;26.58;73.52
30339;BME280;795;49.296;11.348;2022-08-20T12:23:42;96424.41;;;26.68;72.38
30339;BME280;795;49.296;11.348;2022-08-20T12:26:09;96414.38;;;26.37;73.71
30339;BME280;795;49.296;11.348;2022-08-20T12:28:36;96417.72;;;26.49;73.37
30339;BME280;795;49.296;11.348;2022-08-20T12:31:03;96415.06;;;26.74;73.29
30339;BME280;795;49.296;11.348;2022-08-20T12:33:30;96416.75;;;26.75;68.15
30339;BME280;795;49.296;11.348;2022-08-20T12:35:57;96418.19;;;26.88;67.86
30339;BME280;795;49.296;11.348;2022-08-20T12:38:24;96420.88;;;26.21;70.49
30339;BME280;795;49.296;11.348;2022-08-20T12:40:51;96412.38;;;26.22;70.60
30339;BME280;795;49.296;11.348;2022-08-20T12:43:18;96415.28;;;26.06;71.93
30339;BME280;795;49.296;11.348;2022-08-20T12:45:51;96412.00;;;25.40;73.82
30339;BME280;795;49.296;11.348;2022-08-20T12:48:18;96409.88;;;24.89;74.37
30339;BME280;795;49.296;11.348;2022-08-20T12:50:46;96401.78;;;24.56;76.96
30339;BME280;795;49.296;11.348;2022-08-20T12:53:16;96405.41;;;24.39;79.74
30339;BME280;795;49.296;11.348;2022-08-20T12:55:43;96402.78;;;24.50;77.55
30339;BME280;795;49.296;11.348;2022-08-20T12:58:10;96409.50;;;24.80;78.04
30339;BME280;795;49.296;11.348;2022-08-20T13:00:42;96411.47;;;24.41;79.40
30339;BME280;795;49.296;11.348;2022-08-20T13:03:14;96409.84;;;24.40;82.34
30339;BME280;795;49.296;11.348;2022-08-20T13:05:42;96405.53;;;24.71;82.02
30339;BME280;795;49.296;11.348;2022-08-20T13:08:11;96416.94;;;25.07;80.55
30339;BME280;795;49.296;11.348;2022-08-20T13:10:42;96419.19;;;25.15;80.38
30339;BME280;795;49.296;11.348;2022-08-20T13:13:15;96416.63;;;25.35;78.82
30339;BME280;795;49.296;11.348;2022-08-20T13:15:49;96401.16;;;24.97;79.63
30339;BME280;795;49.296;11.348;2022-08-20T13:18:18;96408.75;;;25.12;79.43
30339;BME280;795;49.296;11.348;2022-08-20T13:20:46;96417.66;;;24.97;81.03
30339;BME280;795;49.296;11.348;2022-08-20T13:23:13;96406.53;;;24.38;82.94
30339;BME280;795;49.296;11.348;2022-08-20T13:25:41;96410.78;;;23.91;84.74
30339;BME280;795;49.296;11.348;2022-08-20T13:28:07;96411.75;;;23.63;86.23